Terminal Aerodrome Forecast
Issued by NWS Cheyenne, WY

Home | Current Version | Previous Version | Text Only | Print | Product List | Glossary On
Versions: 1 2 3 4 5 6 7 8 9 10 11 12 13 14 15 16 17 18 19 20 21 22 23 24
000
FTUS45 KCYS 201700
TAFCYS
TAF
KCYS 201740Z 2018/2118 32015G21KT P6SM FEW080
     FM202100 34013G20KT P6SM VCSH SCT070 BKN120
     FM210100 01010KT P6SM SCT080
     FM211500 17012KT P6SM SKC=

USA.gov is the U.S. government's official web portal to all federal, state and local government web resources and services.